Time;durP1;ratioP1;P1;durP2;ratioP2;P2;SDS_P1;SDS_P2;PMS_P1;PMS_P2;Temp;Humidity;BMP_temperature;BMP_pressure;BME280_temperature;BME280_humidity;BME280_pressure;Samples;Min_cycle;Max_cycle;Signal;HPM_P1;HPM_P2
2022/04/29 00:00:38;;;;;;;11.57;3.97;;;6.30;99.90;;;;;;5088181;28;20055;-75
2022/04/29 00:03:09;;;;;;;11.73;3.47;;;6.40;99.90;;;;;;5076374;28;20040;-75
2022/04/29 00:05:36;;;;;;;11.00;4.05;;;6.40;99.90;;;;;;5089691;28;20079;-74
2022/04/29 00:08:03;;;;;;;12.73;3.90;;;6.40;99.90;;;;;;5091425;28;20143;-74
2022/04/29 00:10:29;;;;;;;9.93;4.45;;;6.40;99.90;;;;;;5091995;28;20044;-74
2022/04/29 00:12:55;;;;;;;13.10;3.90;;;6.50;99.90;;;;;;5090200;28;20089;-74
2022/04/29 00:15:21;;;;;;;10.25;3.97;;;6.50;99.90;;;;;;5073143;28;20510;-74
2022/04/29 00:17:47;;;;;;;8.32;3.88;;;6.50;99.90;;;;;;5090552;28;20119;-74
2022/04/29 00:20:14;;;;;;;12.10;3.55;;;6.50;99.90;;;;;;5094994;28;20089;-74
2022/04/29 00:22:41;;;;;;;10.07;3.67;;;6.40;99.90;;;;;;5068731;28;20055;-74
2022/04/29 00:25:08;;;;;;;9.80;3.63;;;6.40;99.90;;;;;;5093788;28;20083;-74
2022/04/29 00:27:34;;;;;;;13.75;4.03;;;6.30;99.90;;;;;;5091833;28;20070;-74
2022/04/29 00:30:00;;;;;;;10.48;3.75;;;6.30;99.90;;;;;;5089669;28;20043;-74
2022/04/29 00:32:26;;;;;;;11.57;3.75;;;6.30;99.90;;;;;;5055103;28;20135;-74
2022/04/29 00:34:51;;;;;;;5.80;3.33;;;6.30;99.90;;;;;;5071456;28;20055;-74
2022/04/29 00:37:18;;;;;;;11.20;3.80;;;6.30;99.90;;;;;;5071463;28;20070;-74
2022/04/29 00:39:44;;;;;;;10.80;3.83;;;6.30;99.90;;;;;;5070891;28;20047;-74
2022/04/29 00:42:18;;;;;;;11.40;3.78;;;6.30;99.90;;;;;;5093010;28;20097;-74
2022/04/29 00:44:45;;;;;;;10.85;3.33;;;6.30;99.90;;;;;;5068308;28;20404;-73
2022/04/29 00:47:14;;;;;;;8.45;3.72;;;6.30;99.90;;;;;;5087731;28;20043;-74
2022/04/29 00:49:40;;;;;;;7.10;4.18;;;6.30;99.90;;;;;;5089501;28;20087;-74
2022/04/29 00:52:09;;;;;;;10.50;4.68;;;6.30;99.90;;;;;;5085190;28;20525;-74
2022/04/29 00:54:37;;;;;;;8.40;3.90;;;6.30;99.90;;;;;;5087203;28;20036;-74
2022/04/29 00:57:09;;;;;;;9.23;3.85;;;6.30;99.90;;;;;;5071066;28;20044;-74
2022/04/29 00:59:49;;;;;;;11.05;4.28;;;6.30;99.90;;;;;;5088185;28;20036;-74
2022/04/29 01:02:15;;;;;;;8.38;4.55;;;6.30;99.90;;;;;;5087509;28;20360;-74
2022/04/29 01:04:52;;;;;;;10.48;4.28;;;6.30;99.90;;;;;;5069963;28;20040;-74
2022/04/29 01:07:17;;;;;;;14.50;4.07;;;6.30;99.90;;;;;;5069674;28;20043;-74
2022/04/29 01:09:43;;;;;;;12.02;4.32;;;6.30;99.90;;;;;;5068540;28;20454;-74
2022/04/29 01:12:09;;;;;;;11.80;3.70;;;6.30;99.90;;;;;;5088424;28;20048;-73
2022/04/29 01:14:35;;;;;;;8.15;4.03;;;6.30;99.90;;;;;;5089541;28;20679;-74
2022/04/29 01:17:00;;;;;;;11.68;4.18;;;6.30;99.90;;;;;;5088081;28;20035;-74
2022/04/29 01:19:26;;;;;;;7.25;3.95;;;6.30;99.90;;;;;;5071966;28;20044;-74
2022/04/29 01:21:52;;;;;;;10.98;4.00;;;6.30;99.90;;;;;;5070667;28;20130;-73
2022/04/29 01:24:17;;;;;;;10.45;4.07;;;6.30;99.90;;;;;;5089591;28;20044;-73
2022/04/29 01:26:43;;;;;;;8.20;3.65;;;6.30;99.90;;;;;;5089425;28;20589;-73
2022/04/29 01:29:09;;;;;;;11.95;4.30;;;6.30;99.90;;;;;;5065571;28;20044;-73
2022/04/29 01:31:36;;;;;;;8.68;3.78;;;6.30;99.90;;;;;;5072706;28;20047;-73
2022/04/29 01:34:02;;;;;;;11.40;3.97;;;6.30;99.90;;;;;;5089304;28;20056;-74
2022/04/29 01:36:28;;;;;;;9.18;3.58;;;6.30;99.90;;;;;;5072917;28;20050;-74
2022/04/29 01:38:54;;;;;;;12.63;4.15;;;6.30;99.90;;;;;;5086727;28;20092;-74
2022/04/29 01:41:20;;;;;;;8.38;4.18;;;6.30;99.90;;;;;;5071003;28;20044;-73
2022/04/29 01:43:46;;;;;;;8.82;4.28;;;6.30;99.90;;;;;;5070030;28;20094;-74
2022/04/29 01:46:12;;;;;;;14.27;4.07;;;6.30;99.90;;;;;;5088107;28;20440;-73
2022/04/29 01:48:38;;;;;;;11.55;3.80;;;6.30;99.90;;;;;;5070283;28;20052;-73
2022/04/29 01:51:06;;;;;;;14.10;5.03;;;6.30;99.90;;;;;;5090024;28;20040;-73
2022/04/29 01:53:32;;;;;;;6.20;4.22;;;6.30;99.90;;;;;;5076846;28;20032;-73
2022/04/29 01:55:58;;;;;;;21.02;5.20;;;6.30;99.90;;;;;;5094901;28;20475;-74
2022/04/29 01:58:24;;;;;;;11.05;4.32;;;6.30;99.90;;;;;;5092141;28;20042;-73
2022/04/29 02:00:49;;;;;;;10.35;4.32;;;6.30;99.90;;;;;;5093625;28;20499;-73
2022/04/29 02:03:15;;;;;;;8.52;3.80;;;6.20;99.90;;;;;;5092482;28;20047;-74
2022/04/29 02:05:40;;;;;;;10.23;4.68;;;6.30;99.90;;;;;;5071076;28;20040;-73
2022/04/29 02:08:07;;;;;;;7.28;3.88;;;6.30;99.90;;;;;;5093570;28;20380;-74
2022/04/29 02:10:33;;;;;;;8.20;4.20;;;6.20;99.90;;;;;;5074668;28;20036;-73
2022/04/29 02:12:58;;;;;;;13.38;4.10;;;6.20;99.90;;;;;;5093232;28;20036;-74
2022/04/29 02:15:24;;;;;;;10.48;4.53;;;6.20;99.90;;;;;;5094809;28;20044;-73
2022/04/29 02:17:50;;;;;;;15.27;4.38;;;6.20;99.90;;;;;;5091051;28;20093;-73
2022/04/29 02:20:16;;;;;;;7.85;4.10;;;6.20;99.90;;;;;;5093759;28;20083;-73
2022/04/29 02:22:41;;;;;;;12.75;5.03;;;6.10;99.90;;;;;;5092291;28;20131;-73
2022/04/29 02:25:08;;;;;;;10.70;4.53;;;6.10;99.90;;;;;;5087867;28;20144;-73
2022/04/29 02:27:33;;;;;;;10.00;4.90;;;6.10;99.90;;;;;;5093484;28;20040;-73
2022/04/29 02:29:59;;;;;;;9.52;4.60;;;6.10;99.90;;;;;;5073135;28;20597;-74
2022/04/29 02:32:25;;;;;;;8.70;4.30;;;6.10;99.90;;;;;;5074556;28;20109;-74
2022/04/29 02:34:50;;;;;;;9.07;4.50;;;6.10;99.90;;;;;;5072072;28;20046;-74
2022/04/29 02:37:16;;;;;;;15.05;6.95;;;6.10;99.90;;;;;;5093098;28;20144;-73
2022/04/29 02:39:42;;;;;;;10.18;4.70;;;6.10;99.90;;;;;;5072475;28;20071;-73
2022/04/29 02:42:08;;;;;;;13.30;5.75;;;6.10;99.90;;;;;;5091820;28;20097;-73
2022/04/29 02:44:33;;;;;;;13.85;4.45;;;6.10;99.90;;;;;;5094846;28;20127;-74
2022/04/29 02:47:08;;;;;;;10.85;4.57;;;6.10;99.90;;;;;;5074072;28;20056;-74
2022/04/29 02:49:44;;;;;;;10.30;4.95;;;6.00;99.90;;;;;;5069923;28;20048;-73
2022/04/29 02:52:12;;;;;;;8.80;5.10;;;5.90;99.90;;;;;;5095870;28;20051;-74
2022/04/29 02:54:38;;;;;;;12.45;5.38;;;5.90;99.90;;;;;;5092676;28;20076;-73
2022/04/29 02:57:04;;;;;;;9.23;4.93;;;5.90;99.90;;;;;;5091908;28;20075;-74
2022/04/29 02:59:30;;;;;;;11.20;4.68;;;5.90;99.90;;;;;;5090814;28;20097;-73
2022/04/29 03:01:56;;;;;;;9.15;4.93;;;5.90;99.90;;;;;;5091074;28;20073;-73
2022/04/29 03:04:22;;;;;;;8.40;5.57;;;5.90;99.90;;;;;;5072153;28;20526;-73
2022/04/29 03:06:48;;;;;;;10.77;5.65;;;5.90;99.90;;;;;;5073156;28;20059;-73
2022/04/29 03:09:14;;;;;;;9.75;4.72;;;5.90;99.90;;;;;;5073356;28;20071;-73
2022/04/29 03:11:40;;;;;;;8.70;5.07;;;6.00;99.90;;;;;;5095072;28;20044;-73
2022/04/29 03:14:06;;;;;;;12.00;4.80;;;6.00;99.90;;;;;;5074962;28;20036;-74
2022/04/29 03:16:32;;;;;;;9.57;5.13;;;6.00;99.90;;;;;;5092635;28;20076;-74
2022/04/29 03:18:57;;;;;;;10.45;5.38;;;6.00;99.90;;;;;;5091852;28;20046;-73
2022/04/29 03:21:24;;;;;;;7.72;4.97;;;6.00;99.90;;;;;;5093234;28;20105;-73
2022/04/29 03:23:50;;;;;;;10.07;4.80;;;6.00;99.90;;;;;;5090641;28;20071;-73
2022/04/29 03:26:16;;;;;;;9.25;5.20;;;5.90;99.90;;;;;;5074156;28;20044;-73
2022/04/29 03:28:42;;;;;;;8.07;4.93;;;5.90;99.90;;;;;;5090173;28;20411;-73
2022/04/29 03:31:07;;;;;;;14.13;5.40;;;5.90;99.90;;;;;;5092475;28;20058;-73
2022/04/29 03:33:34;;;;;;;11.27;4.95;;;5.90;99.90;;;;;;5090348;28;20504;-73
2022/04/29 03:36:00;;;;;;;11.23;5.22;;;5.90;99.90;;;;;;5077565;28;20065;-73
2022/04/29 03:38:26;;;;;;;8.23;5.40;;;5.80;99.90;;;;;;5092160;28;20051;-73
2022/04/29 03:40:52;;;;;;;9.75;5.55;;;5.80;99.90;;;;;;5095121;28;20047;-74
2022/04/29 03:43:18;;;;;;;8.90;5.65;;;5.80;99.90;;;;;;5091462;28;20106;-73
2022/04/29 03:45:45;;;;;;;7.97;5.00;;;5.90;99.90;;;;;;5070263;28;20506;-73
2022/04/29 03:48:10;;;;;;;12.43;4.85;;;5.90;99.90;;;;;;5086943;28;20035;-73
2022/04/29 03:50:37;;;;;;;12.55;5.25;;;6.00;99.90;;;;;;5088388;28;20557;-73
2022/04/29 03:53:03;;;;;;;10.90;5.22;;;6.00;99.90;;;;;;5072359;28;20126;-73
2022/04/29 03:55:31;;;;;;;9.60;5.10;;;6.00;99.90;;;;;;5073815;28;20039;-73
2022/04/29 03:57:58;;;;;;;13.68;5.88;;;6.00;99.90;;;;;;5090906;28;20044;-73
2022/04/29 04:00:25;;;;;;;8.60;4.72;;;6.10;99.90;;;;;;5090398;28;20061;-73
2022/04/29 04:02:51;;;;;;;13.32;5.40;;;6.10;99.90;;;;;;5089186;28;20036;-73
2022/04/29 04:05:17;;;;;;;11.18;5.30;;;6.20;99.90;;;;;;5069521;28;20047;-73
2022/04/29 04:07:47;;;;;;;7.45;4.90;;;6.20;99.90;;;;;;5091272;28;20089;-73
2022/04/29 04:10:13;;;;;;;9.30;4.80;;;6.20;99.90;;;;;;5069306;28;20052;-73
2022/04/29 04:12:50;;;;;;;11.40;4.80;;;6.20;99.90;;;;;;5093937;28;20039;-73
2022/04/29 04:15:19;;;;;;;11.90;4.90;;;6.20;99.90;;;;;;5091850;28;20463;-73
2022/04/29 04:17:46;;;;;;;13.00;5.20;;;6.20;99.90;;;;;;5073979;28;20058;-73
2022/04/29 04:20:13;;;;;;;8.75;5.07;;;6.10;99.90;;;;;;5089434;28;20048;-73
2022/04/29 04:22:39;;;;;;;7.70;4.50;;;6.10;99.90;;;;;;5072927;28;20044;-74
2022/04/29 04:25:07;;;;;;;10.98;5.50;;;6.10;99.90;;;;;;5086950;28;20487;-73
2022/04/29 04:27:33;;;;;;;9.50;5.55;;;6.20;99.90;;;;;;5075724;28;20658;-73
2022/04/29 04:30:00;;;;;;;6.60;4.47;;;6.10;99.90;;;;;;5088645;28;20032;-73
2022/04/29 04:32:26;;;;;;;11.20;4.43;;;6.20;99.90;;;;;;5071031;28;20040;-74
2022/04/29 04:34:57;;;;;;;8.73;4.30;;;6.20;99.90;;;;;;5087489;28;20119;-74
2022/04/29 04:37:27;;;;;;;9.05;4.57;;;6.30;99.90;;;;;;5070323;28;20075;-73
2022/04/29 04:39:54;;;;;;;11.05;5.32;;;6.20;99.90;;;;;;5071904;28;20043;-74
2022/04/29 04:42:20;;;;;;;15.07;4.97;;;6.30;99.90;;;;;;5088785;28;20549;-74
2022/04/29 04:44:48;;;;;;;7.07;4.60;;;6.30;99.90;;;;;;5054664;28;20093;-73
2022/04/29 04:47:14;;;;;;;7.78;4.43;;;6.30;99.90;;;;;;5069926;28;20445;-74
2022/04/29 04:49:39;;;;;;;11.18;5.00;;;6.40;99.90;;;;;;5069117;28;20040;-74
2022/04/29 04:52:05;;;;;;;7.22;4.65;;;6.40;99.90;;;;;;5074539;28;20086;-73
2022/04/29 04:54:31;;;;;;;8.90;4.35;;;6.40;99.90;;;;;;5089415;28;20487;-73
2022/04/29 04:56:57;;;;;;;10.15;5.05;;;6.50;99.90;;;;;;5088665;28;20047;-74
2022/04/29 04:59:22;;;;;;;9.90;5.43;;;6.50;99.90;;;;;;5089451;28;20145;-73
2022/04/29 05:01:48;;;;;;;8.93;4.72;;;6.50;99.90;;;;;;5068702;28;20074;-74
2022/04/29 05:04:14;;;;;;;6.05;4.50;;;6.60;99.90;;;;;;5089110;28;20032;-74
2022/04/29 05:06:40;;;;;;;9.52;5.35;;;6.60;99.90;;;;;;5090019;28;20047;-74
2022/04/29 05:09:06;;;;;;;9.48;5.82;;;6.60;99.90;;;;;;5087642;28;20047;-74
2022/04/29 05:11:32;;;;;;;10.90;5.40;;;6.60;99.90;;;;;;5089954;28;20089;-74
2022/04/29 05:13:58;;;;;;;8.70;5.45;;;6.60;99.90;;;;;;5071676;28;20048;-73
2022/04/29 05:16:24;;;;;;;9.30;5.28;;;6.70;99.90;;;;;;5071303;28;20063;-74
2022/04/29 05:18:50;;;;;;;10.82;5.55;;;6.70;99.90;;;;;;5072924;28;20495;-74
2022/04/29 05:21:16;;;;;;;16.15;5.95;;;6.70;99.90;;;;;;5088835;28;20091;-73
2022/04/29 05:23:42;;;;;;;12.23;5.50;;;6.80;99.90;;;;;;5092035;28;20047;-74
2022/04/29 05:26:08;;;;;;;10.73;5.70;;;6.80;99.90;;;;;;5095104;28;20119;-74
2022/04/29 05:28:34;;;;;;;9.38;5.30;;;6.90;99.90;;;;;;5093303;28;20097;-74
2022/04/29 05:31:01;;;;;;;7.78;5.07;;;6.90;99.90;;;;;;5094389;28;20444;-74
2022/04/29 05:33:27;;;;;;;9.90;5.35;;;7.00;99.90;;;;;;5092511;28;20123;-74
2022/04/29 05:35:53;;;;;;;9.65;4.63;;;7.00;99.90;;;;;;5072453;28;20051;-74
2022/04/29 05:38:20;;;;;;;8.57;4.85;;;7.10;99.90;;;;;;5076171;28;20048;-74
2022/04/29 05:43:30;;;;;;;9.15;4.90;;;7.20;99.90;;;;;;5071159;28;20044;-74
2022/04/29 05:45:56;;;;;;;9.07;4.78;;;7.30;99.90;;;;;;5075902;28;20133;-74
2022/04/29 05:48:22;;;;;;;11.90;4.88;;;7.30;99.90;;;;;;5073770;28;20039;-73
2022/04/29 05:50:48;;;;;;;5.90;4.35;;;7.40;99.90;;;;;;5073204;28;20062;-74
2022/04/29 05:53:15;;;;;;;8.43;4.88;;;7.40;99.90;;;;;;5090488;28;20036;-74
2022/04/29 05:55:41;;;;;;;10.52;4.47;;;7.50;99.90;;;;;;5076472;28;20098;-74
2022/04/29 05:58:07;;;;;;;7.10;4.38;;;7.50;99.90;;;;;;5075663;28;20044;-74
2022/04/29 06:00:32;;;;;;;12.13;4.50;;;7.50;99.90;;;;;;5098900;28;20509;-75
2022/04/29 06:02:58;;;;;;;10.85;5.20;;;7.60;99.90;;;;;;5092011;28;20120;-75
2022/04/29 06:05:25;;;;;;;8.80;4.00;;;7.60;99.90;;;;;;5094800;28;20123;-75
2022/04/29 06:07:51;;;;;;;7.82;4.18;;;7.60;99.90;;;;;;5074369;28;20082;-75
2022/04/29 06:10:17;;;;;;;10.55;4.50;;;7.70;99.90;;;;;;5093188;28;20044;-76
2022/04/29 06:12:43;;;;;;;9.57;4.20;;;7.80;99.90;;;;;;5091070;28;20089;-75
2022/04/29 06:15:19;;;;;;;6.85;3.47;;;7.90;99.90;;;;;;5093427;28;20450;-74
2022/04/29 06:17:45;;;;;;;8.00;3.05;;;8.00;99.90;;;;;;5092420;28;20055;-74
2022/04/29 06:20:12;;;;;;;5.32;3.03;;;8.10;99.90;;;;;;5093167;28;20143;-74
2022/04/29 06:22:47;;;;;;;6.82;2.95;;;8.20;99.90;;;;;;5074967;28;20057;-74
2022/04/29 06:25:13;;;;;;;8.88;3.70;;;8.30;99.90;;;;;;5072252;28;20044;-74
2022/04/29 06:27:39;;;;;;;7.20;3.35;;;8.40;99.90;;;;;;5073289;28;20511;-74
2022/04/29 06:30:05;;;;;;;10.10;3.75;;;8.40;99.90;;;;;;5073026;28;20055;-74
2022/04/29 06:32:31;;;;;;;4.93;3.08;;;8.50;99.90;;;;;;5053450;28;20496;-73
2022/04/29 06:34:57;;;;;;;8.35;4.10;;;8.50;99.90;;;;;;5069201;28;20040;-74
2022/04/29 06:37:22;;;;;;;11.45;3.45;;;8.70;99.90;;;;;;5072331;28;20040;-73
2022/04/29 06:39:48;;;;;;;6.72;3.35;;;8.80;99.90;;;;;;5072853;28;20099;-74
2022/04/29 06:42:13;;;;;;;7.43;3.10;;;8.90;99.90;;;;;;5070406;28;20033;-75
2022/04/29 06:44:39;;;;;;;6.68;3.03;;;9.00;99.90;;;;;;5072627;28;20484;-74
2022/04/29 06:47:05;;;;;;;5.82;3.20;;;9.00;99.90;;;;;;5052896;28;20629;-75
2022/04/29 06:49:31;;;;;;;8.73;2.63;;;9.10;99.90;;;;;;5054087;28;20637;-74
2022/04/29 06:51:56;;;;;;;13.60;3.08;;;9.10;99.90;;;;;;5068600;28;20035;-74
2022/04/29 06:54:22;;;;;;;6.70;2.47;;;9.10;99.90;;;;;;5056040;28;20105;-74
2022/04/29 06:56:48;;;;;;;6.85;2.15;;;9.20;99.90;;;;;;5054716;28;20052;-73
2022/04/29 06:59:13;;;;;;;15.88;2.50;;;9.30;99.90;;;;;;5071513;28;20044;-74
2022/04/29 07:01:39;;;;;;;4.50;2.05;;;9.40;99.90;;;;;;5069268;28;20044;-74
2022/04/29 07:04:05;;;;;;;7.38;2.00;;;9.50;99.90;;;;;;5071898;28;20248;-75
2022/04/29 07:06:31;;;;;;;5.88;2.42;;;9.60;99.90;;;;;;5073448;28;20063;-74
2022/04/29 07:08:57;;;;;;;4.40;1.75;;;9.60;99.90;;;;;;5070883;28;20036;-75
2022/04/29 07:11:25;;;;;;;9.48;2.33;;;9.70;99.90;;;;;;5054559;28;20067;-74
2022/04/29 07:13:52;;;;;;;4.97;1.50;;;9.90;99.90;;;;;;5051169;28;20517;-75
2022/04/29 07:16:18;;;;;;;6.72;1.40;;;10.00;99.90;;;;;;5071639;28;20047;-75
2022/04/29 07:18:44;;;;;;;4.90;1.33;;;10.10;99.90;;;;;;5075905;28;20036;-75
2022/04/29 07:21:09;;;;;;;4.55;1.52;;;10.10;99.90;;;;;;5073232;28;20140;-75
2022/04/29 07:23:35;;;;;;;4.55;1.60;;;10.10;99.90;;;;;;5068903;28;20119;-75
2022/04/29 07:26:01;;;;;;;3.70;1.50;;;10.10;99.90;;;;;;5067059;28;20045;-75
2022/04/29 07:28:27;;;;;;;4.25;1.50;;;10.20;99.90;;;;;;5069839;28;20428;-75
2022/04/29 07:30:53;;;;;;;5.65;1.70;;;10.20;99.90;;;;;;5071445;28;20072;-74
2022/04/29 07:33:19;;;;;;;5.90;1.70;;;10.20;99.90;;;;;;5054027;28;20033;-75
2022/04/29 07:43:58;;;;;;;9.93;1.58;;;10.10;99.90;;;;;;5053882;28;20052;-75
2022/04/29 07:46:23;;;;;;;8.10;1.80;;;10.10;99.90;;;;;;5056500;28;20114;-75
2022/04/29 07:48:49;;;;;;;9.75;3.20;;;10.10;99.90;;;;;;5052982;28;21002;-75
2022/04/29 07:51:15;;;;;;;4.25;1.90;;;10.00;99.90;;;;;;5053622;28;20040;-75
2022/04/29 07:53:40;;;;;;;3.92;1.90;;;10.10;99.90;;;;;;5070852;28;20048;-75
2022/04/29 07:56:06;;;;;;;6.38;2.00;;;10.20;99.90;;;;;;5067054;28;20068;-74
2022/04/29 07:58:31;;;;;;;5.93;2.88;;;10.30;99.90;;;;;;5055987;28;20036;-74
2022/04/29 08:00:57;;;;;;;10.88;2.05;;;10.50;99.90;;;;;;5066736;28;20339;-75
2022/04/29 08:03:23;;;;;;;5.40;1.70;;;10.50;99.90;;;;;;5055752;28;20047;-74
2022/04/29 08:05:52;;;;;;;5.70;1.90;;;10.60;99.90;;;;;;5062172;28;20487;-75
2022/04/29 08:08:19;;;;;;;8.18;1.90;;;10.60;99.90;;;;;;5051511;28;20044;-75
2022/04/29 08:10:45;;;;;;;4.22;1.67;;;10.70;99.90;;;;;;5066599;28;20393;-75
2022/04/29 08:13:11;;;;;;;8.43;2.13;;;10.90;99.90;;;;;;5069310;28;20052;-75
2022/04/29 08:15:37;;;;;;;6.43;3.28;;;10.90;99.90;;;;;;5045899;28;20045;-75
2022/04/29 08:18:04;;;;;;;10.93;2.20;;;11.10;99.90;;;;;;5052732;28;20071;-76
2022/04/29 08:20:30;;;;;;;7.43;2.30;;;11.00;99.90;;;;;;5050201;28;20049;-75
2022/04/29 08:22:56;;;;;;;3.95;1.73;;;10.90;99.90;;;;;;5090006;28;20412;-74
2022/04/29 08:25:21;;;;;;;6.57;2.30;;;10.90;99.90;;;;;;5090190;28;20044;-76
2022/04/29 08:27:47;;;;;;;6.22;2.58;;;10.80;99.90;;;;;;5064717;28;20753;-76
2022/04/29 08:30:14;;;;;;;7.85;2.35;;;10.70;99.90;;;;;;5093970;28;20126;-75
2022/04/29 08:32:41;;;;;;;6.28;2.92;;;10.60;99.90;;;;;;5089988;28;20166;-75
2022/04/29 08:35:10;;;;;;;7.90;2.40;;;10.50;99.90;;;;;;5085356;28;20068;-76
2022/04/29 08:37:37;;;;;;;3.95;2.13;;;10.50;99.90;;;;;;5068744;28;20044;-74
2022/04/29 08:40:05;;;;;;;5.50;2.50;;;10.50;99.90;;;;;;5074628;28;20400;-75
2022/04/29 08:42:36;;;;;;;5.32;2.67;;;10.50;99.90;;;;;;5091650;28;20442;-75
2022/04/29 08:45:02;;;;;;;5.93;2.42;;;10.40;99.90;;;;;;5073077;28;20040;-75
2022/04/29 08:47:29;;;;;;;6.43;2.83;;;10.40;99.90;;;;;;5088997;28;20173;-75
2022/04/29 08:49:55;;;;;;;7.03;2.70;;;10.40;99.90;;;;;;5081260;28;20043;-75
2022/04/29 08:52:20;;;;;;;4.40;2.50;;;10.40;99.90;;;;;;5073177;28;20551;-74
2022/04/29 09:00:23;;;;;;;4.63;3.00;;;10.30;99.90;;;;;;5069620;28;20036;-73
2022/04/29 09:02:49;;;;;;;7.43;2.83;;;10.30;99.90;;;;;;5068002;28;20048;-71
2022/04/29 09:05:14;;;;;;;7.45;2.58;;;10.40;99.90;;;;;;5087482;28;20044;-72
2022/04/29 09:08:00;;;;;;;7.07;2.95;;;10.30;99.90;;;;;;5087620;28;20200;-71
2022/04/29 09:10:34;;;;;;;6.40;2.55;;;10.30;99.90;;;;;;5071363;28;20044;-71
2022/04/29 09:13:11;;;;;;;7.07;2.47;;;10.30;99.90;;;;;;5088163;28;20040;-71
2022/04/29 09:15:37;;;;;;;9.95;3.38;;;10.40;99.90;;;;;;5071604;28;20044;-71
2022/04/29 09:18:03;;;;;;;4.50;2.40;;;10.50;99.90;;;;;;5089637;28;20036;-71
2022/04/29 09:20:29;;;;;;;7.00;2.05;;;10.60;99.90;;;;;;5095349;28;20475;-71
2022/04/29 09:22:55;;;;;;;4.35;1.80;;;10.60;99.90;;;;;;5089051;28;20103;-71
2022/04/29 09:25:21;;;;;;;5.80;2.15;;;10.70;99.90;;;;;;5089857;28;20455;-71
2022/04/29 09:27:54;;;;;;;6.93;2.72;;;10.70;99.90;;;;;;5069871;28;20397;-72
2022/04/29 09:30:40;;;;;;;5.47;2.03;;;10.80;99.90;;;;;;5089364;28;20052;-71
2022/04/29 09:33:20;;;;;;;5.43;2.30;;;10.80;99.90;;;;;;5093340;28;20067;-71
2022/04/29 09:35:47;;;;;;;4.82;2.65;;;10.90;99.90;;;;;;5080955;28;20044;-71
2022/04/29 09:41:00;;;;;;;5.95;2.80;;;10.90;99.90;;;;;;5090034;28;20052;-71
2022/04/29 09:43:44;;;;;;;9.90;3.25;;;10.90;99.90;;;;;;5071422;28;20079;-71
2022/04/29 09:46:10;;;;;;;4.00;2.70;;;10.80;99.90;;;;;;5071918;28;20044;-71
2022/04/29 09:48:53;;;;;;;4.88;2.55;;;10.90;99.90;;;;;;5086099;28;20047;-72
2022/04/29 09:51:38;;;;;;;;;;;10.90;99.90;;;;;;5084723;28;20052;-71
2022/04/29 09:54:08;;;;;;;8.57;3.40;;;11.00;99.90;;;;;;5072384;28;19970;-71
2022/04/29 09:56:33;;;;;;;7.43;3.20;;;10.90;99.90;;;;;;5067540;28;20071;-71
2022/04/29 09:58:59;;;;;;;7.40;3.13;;;10.90;99.90;;;;;;5087749;28;20079;-71
2022/04/29 10:01:25;;;;;;;9.30;2.60;;;10.80;99.90;;;;;;5090041;28;20089;-71
2022/04/29 10:03:51;;;;;;;8.95;3.50;;;10.70;99.90;;;;;;5089451;28;20048;-71
2022/04/29 10:06:20;;;;;;;4.88;2.83;;;10.70;99.90;;;;;;5090186;28;20550;-72
2022/04/29 10:08:49;;;;;;;7.75;3.17;;;10.50;99.90;;;;;;5086896;28;20040;-71
2022/04/29 10:11:15;;;;;;;5.88;3.33;;;10.50;99.90;;;;;;5093711;28;20058;-71
2022/04/29 10:13:41;;;;;;;9.48;3.67;;;10.40;99.90;;;;;;5092029;28;20518;-71
2022/04/29 10:16:11;;;;;;;6.78;2.70;;;10.40;99.90;;;;;;5094043;28;20040;-71
2022/04/29 10:21:25;;;;;;;6.38;3.40;;;10.30;99.90;;;;;;5083601;28;20078;-72
2022/04/29 10:23:51;;;;;;;6.32;2.78;;;10.30;99.90;;;;;;5092027;28;20040;-73
2022/04/29 10:26:21;;;;;;;7.40;3.08;;;10.30;99.90;;;;;;5075005;28;20443;-76
2022/04/29 10:28:48;;;;;;;9.32;3.15;;;10.30;99.90;;;;;;5090709;28;20028;-73
2022/04/29 10:31:21;;;;;;;7.82;3.35;;;10.20;99.90;;;;;;5092112;28;20083;-72
2022/04/29 10:33:47;;;;;;;5.63;3.00;;;10.20;99.90;;;;;;5091130;28;20067;-72
2022/04/29 10:36:16;;;;;;;7.75;3.70;;;10.10;99.90;;;;;;5093307;28;20067;-72
2022/04/29 10:38:46;;;;;;;7.55;3.03;;;10.10;99.90;;;;;;5097587;28;20045;-72
2022/04/29 10:41:25;;;;;;;14.50;3.42;;;10.10;99.90;;;;;;5093614;28;20039;-72
2022/04/29 10:43:51;;;;;;;7.35;3.25;;;10.10;99.90;;;;;;5076870;28;20040;-72
2022/04/29 10:46:36;;;;;;;10.50;3.10;;;10.10;99.90;;;;;;5092884;28;20040;-72
2022/04/29 10:49:28;;;;;;;8.20;3.20;;;10.20;99.90;;;;;;5067844;28;20695;-72
2022/04/29 10:51:55;;;;;;;7.75;3.10;;;10.20;99.90;;;;;;5093974;28;20421;-72
2022/04/29 10:54:33;;;;;;;10.18;3.67;;;10.20;99.90;;;;;;5073359;28;20179;-72
2022/04/29 10:57:04;;;;;;;8.18;2.80;;;10.40;99.90;;;;;;5095258;28;20090;-72
2022/04/29 10:59:51;;;;;;;7.47;3.78;;;10.50;99.90;;;;;;5073540;28;20127;-72
2022/04/29 11:02:35;;;;;;;7.40;3.35;;;10.60;99.90;;;;;;5091324;28;20040;-72
2022/04/29 11:05:03;;;;;;;5.97;2.83;;;10.60;99.90;;;;;;5091838;28;20048;-72
2022/04/29 11:07:33;;;;;;;7.38;3.30;;;10.60;99.90;;;;;;5090176;28;20392;-72
2022/04/29 11:09:58;;;;;;;6.28;2.47;;;10.70;99.90;;;;;;5092868;28;20198;-72
2022/04/29 11:12:30;;;;;;;10.07;3.35;;;10.80;99.90;;;;;;5089467;28;20190;-72
2022/04/29 11:15:14;;;;;;;6.32;3.08;;;10.80;99.90;;;;;;5072533;28;20127;-72
2022/04/29 11:17:40;;;;;;;5.35;2.30;;;10.80;99.90;;;;;;5092506;28;20075;-74
2022/04/29 11:20:38;;;;;;;6.90;2.95;;;10.80;99.90;;;;;;5091786;28;20062;-72
2022/04/29 11:26:00;;;;;;;9.02;2.75;;;10.90;99.90;;;;;;5057180;28;20635;-73
2022/04/29 11:28:27;;;;;;;7.13;2.67;;;11.00;99.90;;;;;;5059240;28;20043;-72
2022/04/29 11:31:08;;;;;;;4.57;2.22;;;11.00;99.90;;;;;;5052656;28;20515;-71
2022/04/29 11:33:34;;;;;;;7.03;3.22;;;11.10;99.90;;;;;;5070640;28;20032;-71
2022/04/29 11:36:11;;;;;;;8.43;2.45;;;11.10;99.90;;;;;;5071178;28;20047;-71
2022/04/29 11:38:42;;;;;;;6.10;2.40;;;11.00;99.90;;;;;;5072975;28;20064;-71
2022/04/29 11:41:14;;;;;;;5.85;2.72;;;11.00;99.90;;;;;;5053853;28;20032;-71
2022/04/29 11:43:40;;;;;;;5.18;2.08;;;11.00;99.90;;;;;;5069218;28;20085;-71
2022/04/29 11:46:07;;;;;;;5.53;2.15;;;11.10;99.90;;;;;;5066948;28;20084;-68
2022/04/29 11:48:36;;;;;;;6.43;2.33;;;11.10;99.90;;;;;;5069869;28;20453;-68
2022/04/29 11:51:04;;;;;;;5.97;2.28;;;11.10;99.90;;;;;;5069545;28;20044;-69
2022/04/29 11:54:12;;;;;;;4.72;2.13;;;11.10;99.90;;;;;;5078563;28;20079;-69
2022/04/29 11:56:40;;;;;;;5.20;2.15;;;11.10;99.90;;;;;;5052361;28;20504;-69
2022/04/29 11:59:07;;;;;;;7.28;2.55;;;11.10;99.90;;;;;;5052473;28;20166;-69
2022/04/29 12:01:34;;;;;;;5.40;2.80;;;11.20;99.90;;;;;;5070109;28;20091;-69
2022/04/29 12:04:00;;;;;;;6.45;2.22;;;11.10;99.90;;;;;;5069567;28;20048;-69
2022/04/29 12:06:26;;;;;;;7.97;2.80;;;11.10;99.90;;;;;;5070758;28;20045;-69
2022/04/29 12:08:51;;;;;;;8.15;2.88;;;11.10;99.90;;;;;;5071328;28;20396;-70
2022/04/29 12:11:24;;;;;;;6.47;2.42;;;11.10;99.90;;;;;;5069153;28;20043;-69
2022/04/29 12:13:50;;;;;;;3.88;2.03;;;11.10;99.90;;;;;;5050524;28;20068;-70
2022/04/29 12:16:16;;;;;;;4.45;2.13;;;11.10;99.90;;;;;;5055095;28;20045;-70
2022/04/29 12:18:44;;;;;;;7.50;2.33;;;11.10;99.90;;;;;;5056092;28;20566;-70
2022/04/29 12:21:11;;;;;;;7.10;2.10;;;11.10;99.90;;;;;;5073720;28;20109;-70
2022/04/29 12:23:38;;;;;;;4.68;2.50;;;11.10;99.90;;;;;;5090743;28;20051;-70
2022/04/29 12:26:04;;;;;;;9.18;2.47;;;11.00;99.90;;;;;;5091081;28;20082;-70
2022/04/29 12:28:32;;;;;;;6.65;2.42;;;11.00;99.90;;;;;;5091173;28;20040;-70
2022/04/29 12:36:54;;;;;;;6.15;2.60;;;11.30;99.90;;;;;;5081811;28;20387;-70
2022/04/29 12:39:24;;;;;;;6.43;2.67;;;11.30;99.90;;;;;;5084544;28;20100;-67
2022/04/29 12:41:58;;;;;;;4.10;2.30;;;11.30;99.90;;;;;;5070021;28;20507;-69
2022/04/29 12:47:25;;;;;;;6.85;2.53;;;11.20;99.90;;;;;;5049040;28;20036;-69
2022/04/29 12:49:51;;;;;;;6.30;2.95;;;11.20;99.90;;;;;;5084752;28;20059;-69
2022/04/29 12:52:17;;;;;;;7.68;3.00;;;11.20;99.90;;;;;;5088915;28;20036;-69
2022/04/29 12:54:43;;;;;;;5.65;3.10;;;11.30;99.90;;;;;;5090058;28;20209;-69
2022/04/29 12:57:09;;;;;;;8.30;2.72;;;11.40;99.90;;;;;;5090635;28;20589;-69
2022/04/29 12:59:37;;;;;;;7.15;2.75;;;11.20;99.90;;;;;;5087383;28;20032;-69
2022/04/29 13:02:07;;;;;;;7.55;2.70;;;11.20;99.90;;;;;;5092393;28;20069;-68
2022/04/29 13:04:33;;;;;;;6.13;2.67;;;11.20;99.90;;;;;;5069743;28;20399;-72
2022/04/29 13:06:59;;;;;;;6.93;2.83;;;11.20;99.90;;;;;;5077663;28;20044;-72
2022/04/29 13:09:25;;;;;;;7.97;2.75;;;11.20;99.90;;;;;;5093239;28;20101;-71
2022/04/29 13:11:52;;;;;;;8.35;3.15;;;11.30;99.90;;;;;;5069430;28;20032;-72
2022/04/29 13:14:17;;;;;;;6.07;2.83;;;11.30;99.90;;;;;;5072142;28;20043;-73
2022/04/29 13:16:44;;;;;;;4.97;2.20;;;11.40;99.90;;;;;;5089964;28;20334;-72
2022/04/29 13:19:11;;;;;;;10.15;3.35;;;11.50;99.90;;;;;;5089160;28;20043;-72
2022/04/29 13:21:37;;;;;;;7.10;2.83;;;11.60;99.90;;;;;;5090341;28;20043;-72
2022/04/29 13:24:03;;;;;;;7.10;2.90;;;11.70;99.90;;;;;;5089216;28;20048;-72
2022/04/29 13:26:32;;;;;;;8.13;2.88;;;11.70;99.90;;;;;;5067105;28;20434;-73